KDNS/DNS METAR and TAF weather

Enter ICAO airport designator
Station Type Date Time Source
KDNS METAR 2019/12/13 14:15 UTC NOAA

KDNS 131415Z AUTO 12003KT 4SM BR FEW047 SCT055 SCT070 M07/M06 A2990 RMK AO2


Station Type Date Time Source
KDNS Decoded METAR 2019/12/13 14:15 UTC NOAA

Denison, IA, United States (KDNS) 41-59N 095-23W
Dec 13, 2019 - 09:15 AM EST / 2019.12.13 1415 UTC
Wind: from the ESE (120 degrees) at 3 MPH (3 KT):0
Visibility: 4 mile(s):0
Sky conditions: partly cloudy
Weather: mist
Temperature: 19 F (-7 C)
Dew Point: 21 F (-6 C)
Relative Humidity: 107%
Pressure (altimeter): 29.9 in. Hg (1012 hPa)
ob: KDNS 131415Z AUTO 12003KT 4SM BR FEW047 SCT055 SCT070 M07/M06 A2990 RMK AO2
cycle: 14

Station Type Date Time Source
KDNS TAF UTC NOAA

Error!

Example: see airport list